Flight Track Log - Related Links

Times and Time Zones

All times are in EDT time to prevent confusion due to time zone crossing. See the PDT4314 flight status page for this flight to view local times or setup timezone preferences in your user account.

Time Position Orientation Groundspeed Altitude Reporting Facility
EDT Latitude Longitude Course Direction KTS MPH feet Rate Location/Type
Sun 05:38:51 PM 39.9000 -75.2333 North 127 146 600  Level Philadelphia TRACON
Sun 05:40:03 PM 39.9167 -75.2833 294° West 132 152 2,700 1,667 Climbing Philadelphia TRACON
Sun 05:41:00 PM 40.0160 -75.3660 323° Northwest  Level FlightAware Approximate
Sun 05:41:15 PM 39.9500 -75.3333 311° West 148 170 4,600  Level Philadelphia TRACON
Sun 05:42:00 PM 40.0650 -75.4150 323° Northwest  Level FlightAware Approximate
Sun 05:42:21 PM 39.9833 -75.3667 323° Northwest 145 167 6,400  Level Philadelphia TRACON
Sun 05:43:00 PM 40.1130 -75.4594 303° West  Level FlightAware Approximate
Sun 05:43:21 PM 40.0167 -75.4000 323° Northwest 149 171 7,900  Level Philadelphia TRACON
Sun 05:44:00 PM 40.1631 -75.5000 North  Level FlightAware Approximate
Sun 05:44:34 PM 40.0589 -75.4356 327° Northwest 169 194 9,000  Level New York Center
Sun 05:45:34 PM 40.1075 -75.4661 334° Northwest 199 229 9,000 600 Level New York Center
Sun 05:46:34 PM 40.1619 -75.5131 327° Northwest 213 245 10,200 1,150 Climbing New York Center
Sun 05:47:34 PM 40.2125 -75.5547 328° Northwest 213 245 11,300 950 Climbing New York Center
Sun 05:48:34 PM 40.2481 -75.6006 315° West 208 239 12,100 350 Climbing New York Center
Sun 05:49:34 PM 40.2742 -75.6758 294° West 217 250 12,000 -50 Descending New York Center
Sun 05:50:34 PM 40.3017 -75.7622 293° West 235 270 12,000  Level New York Center
Sun 05:51:34 PM 40.3128 -75.8475 280° West 235 270 12,000  Level New York Center
Sun 05:52:34 PM 40.3386 -75.9228 294° West 235 270 12,000  Level New York Center
Sun 05:53:34 PM 40.3889 -75.9675 326° Northwest 229 264 12,000  Level New York Center
Sun 05:54:34 PM 40.4447 -76.0264 321° Northwest 239 275 12,000  Level New York Center
Sun 05:55:34 PM 40.4942 -76.0847 318° Northwest 239 275 12,000 250 Level New York Center
Sun 05:56:34 PM 40.5461 -76.1322 325° Northwest 239 275 12,500 1,000 Climbing New York Center
Sun 05:57:34 PM 40.5819 -76.1681 323° Northwest 204 235 14,000 750 Climbing New York Center
Sun 05:58:34 PM 40.6236 -76.2178 318° Northwest 193 222 14,000  Level New York Center
Sun 05:59:34 PM 40.6797 -76.2633 328° Northwest 207 238 14,000  Level New York Center
Sun 06:00:34 PM 40.7450 -76.2519 North 213 245 14,000  Level New York Center
Sun 06:01:34 PM 40.8119 -76.2436 North 224 258 14,000  Level New York Center
Sun 06:02:34 PM 40.8725 -76.2431 360° North 234 269 14,000  Level New York Center
Sun 06:03:34 PM 40.9478 -76.2353 North 234 269 14,000  Level New York Center
Sun 06:04:34 PM 41.0169 -76.2244 North 240 276 14,000  Level New York Center
Sun 06:05:34 PM 41.0842 -76.2161 North 240 276 14,000  Level New York Center
Sun 06:06:34 PM 41.1428 -76.2097 North 240 276 14,000  Level New York Center
Sun 06:07:34 PM 41.2117 -76.2069 North 240 276 14,000  Level New York Center
Sun 06:08:34 PM 41.2847 -76.2019 North 235 270 14,000  Level New York Center
Sun 06:09:34 PM 41.3517 -76.1961 North 235 270 14,000  Level New York Center
Sun 06:10:34 PM 41.4183 -76.1961 360° North 235 270 14,000  Level New York Center
Sun 06:11:34 PM 41.4789 -76.1897 North 235 270 14,000  Level New York Center
Sun 06:12:34 PM 41.5461 -76.1814 North 235 270 14,000 -500 Level New York Center
Sun 06:13:34 PM 41.6253 -76.1794 North 240 276 13,000 -950 Descending New York Center
Sun 06:14:34 PM 41.7006 -76.1717 North 261 300 12,100 -950 Descending New York Center
Sun 06:15:34 PM 41.7781 -76.1642 North 272 313 11,100 -1,050 Descending New York Center
Sun 06:16:34 PM 41.8489 -76.1642 360° North 277 319 10,000 -1,100 Descending New York Center
Sun 06:17:34 PM 41.9261 -76.1567 North 277 319 8,900 -1,200 Descending New York Center
Sun 06:18:34 PM 42.0056 -76.1492 North 272 313 7,600 -1,700 Descending New York Center
Sun 06:19:34 PM 42.0644 -76.0897 37° Northeast 254 292 5,500 -1,750 Descending New York Center
Sun 06:20:34 PM 42.1008 -76.0228 54° Northeast 243 280 4,100 -1,150 Descending New York Center
Sun 06:21:34 PM 42.1386 -75.9697 46° Northeast 218 251 3,200 -1,000 Descending New York Center
Sun 06:22:34 PM 42.1786 -75.9589 11° North 149 171 2,100 -550 Descending New York Center
Sun 06:23:34 PM 42.2128 -75.9364 26° Northeast 149 171 2,100  Level New York Center

Login

Don't have an account? Register now (free) for customized features, flight alerts, and more!